Time;durP1;ratioP1;P1;durP2;ratioP2;P2;SDS_P1;SDS_P2;PMS_P1;PMS_P2;Temp;Humidity;BMP_temperature;BMP_pressure;BME280_temperature;BME280_humidity;BME280_pressure;Samples;Min_cycle;Max_cycle;Signal;HPM_P1;HPM_P2
2024/02/20 00:00:08;;;;;;;6.60;5.60;;;;;;;;;;6114680;29;20487;-62
2024/02/20 00:03:16;;;;;;;10.33;5.97;;;;;;;;;;6115301;29;20467;-62
2024/02/20 00:06:20;;;;;;;9.63;5.80;;;;;;;;;;6115662;29;20394;-61
2024/02/20 00:09:24;;;;;;;10.83;5.93;;;;;;;;;;6114873;29;20316;-62
2024/02/20 00:12:28;;;;;;;8.53;5.90;;;;;;;;;;6093452;29;20304;-61
2024/02/20 00:15:32;;;;;;;9.20;5.20;;;;;;;;;;6091353;29;20313;-61
2024/02/20 00:18:37;;;;;;;7.30;5.57;;;;;;;;;;6091100;29;20478;-61
2024/02/20 00:21:41;;;;;;;8.80;5.70;;;;;;;;;;6091144;29;20480;-61
2024/02/20 00:24:45;;;;;;;6.73;5.47;;;;;;;;;;6089748;29;20317;-61
2024/02/20 00:27:49;;;;;;;7.30;6.30;;;;;;;;;;6091679;29;20299;-61
2024/02/20 00:30:53;;;;;;;6.60;4.97;;;;;;;;;;6090811;29;20298;-61
2024/02/20 00:33:59;;;;;;;9.43;5.80;;;;;;;;;;6090984;29;20296;-61
2024/02/20 00:37:05;;;;;;;8.67;5.43;;;;;;;;;;6090640;29;20302;-61
2024/02/20 00:40:11;;;;;;;6.20;5.60;;;;;;;;;;6091063;29;20302;-62
2024/02/20 00:43:15;;;;;;;6.00;5.30;;;;;;;;;;6091004;29;20315;-61
2024/02/20 00:46:19;;;;;;;6.87;5.47;;;;;;;;;;6089012;29;20340;-61
2024/02/20 00:49:25;;;;;;;6.87;5.07;;;;;;;;;;6090178;29;20309;-61
2024/02/20 00:52:29;;;;;;;8.33;5.40;;;;;;;;;;6089727;29;20302;-61
2024/02/20 00:55:33;;;;;;;7.87;5.70;;;;;;;;;;6125703;29;20290;-60
2024/02/20 00:58:37;;;;;;;7.37;5.43;;;;;;;;;;6137079;29;20382;-62
2024/02/20 01:01:41;;;;;;;5.37;4.87;;;;;;;;;;6138192;29;20564;-61
2024/02/20 01:04:47;;;;;;;7.63;5.90;;;;;;;;;;6137343;29;20300;-62
2024/02/20 01:07:51;;;;;;;5.70;5.00;;;;;;;;;;6137181;29;20295;-62
2024/02/20 01:10:55;;;;;;;8.97;5.93;;;;;;;;;;6127515;29;20305;-61
2024/02/20 01:13:59;;;;;;;10.50;5.77;;;;;;;;;;6113077;29;20311;-62
2024/02/20 01:17:03;;;;;;;8.13;5.20;;;;;;;;;;6113895;29;20294;-61
2024/02/20 01:20:09;;;;;;;7.90;5.07;;;;;;;;;;6114043;29;20304;-62
2024/02/20 01:23:14;;;;;;;7.10;5.37;;;;;;;;;;6113676;29;20301;-61
2024/02/20 01:26:19;;;;;;;8.17;5.40;;;;;;;;;;6114010;29;20308;-61
2024/02/20 01:29:23;;;;;;;6.80;5.63;;;;;;;;;;6112412;29;20298;-60
2024/02/20 01:32:27;;;;;;;7.33;5.13;;;;;;;;;;6114030;29;20588;-61
2024/02/20 01:35:32;;;;;;;6.83;5.10;;;;;;;;;;6113192;29;20302;-61
2024/02/20 01:38:36;;;;;;;7.40;5.00;;;;;;;;;;6112734;29;20398;-61
2024/02/20 01:41:42;;;;;;;10.13;5.70;;;;;;;;;;6112715;29;20490;-61
2024/02/20 01:44:45;;;;;;;9.47;5.30;;;;;;;;;;6111654;29;20349;-60
2024/02/20 01:47:49;;;;;;;7.70;5.17;;;;;;;;;;6113794;29;20317;-61
2024/02/20 01:50:55;;;;;;;7.73;5.23;;;;;;;;;;6112879;29;20301;-61
2024/02/20 01:54:00;;;;;;;8.07;5.30;;;;;;;;;;6112969;29;20302;-60
2024/02/20 01:57:04;;;;;;;11.70;5.50;;;;;;;;;;6113377;29;20302;-61
2024/02/20 02:00:08;;;;;;;7.83;5.53;;;;;;;;;;6113096;29;20296;-61
2024/02/20 02:03:15;;;;;;;10.43;5.87;;;;;;;;;;6112999;29;20464;-61
2024/02/20 02:06:29;;;;;;;9.77;5.43;;;;;;;;;;6113830;29;20581;-62
2024/02/20 02:09:33;;;;;;;9.47;5.60;;;;;;;;;;6112575;29;20312;-61
2024/02/20 02:12:37;;;;;;;13.03;5.90;;;;;;;;;;6113392;29;20296;-61
2024/02/20 02:15:41;;;;;;;9.23;5.60;;;;;;;;;;6112473;29;20301;-61
2024/02/20 02:18:44;;;;;;;10.33;5.17;;;;;;;;;;6112757;29;20582;-60
2024/02/20 02:21:50;;;;;;;11.73;6.03;;;;;;;;;;6128044;29;20293;-62
2024/02/20 02:24:54;;;;;;;11.07;5.97;;;;;;;;;;6113100;29;20291;-61
2024/02/20 02:27:59;;;;;;;9.00;5.97;;;;;;;;;;6112583;29;20297;-61
2024/02/20 02:31:03;;;;;;;13.30;6.47;;;;;;;;;;6112803;29;20301;-61
2024/02/20 02:34:06;;;;;;;11.70;6.27;;;;;;;;;;6112863;29;20304;-61
2024/02/20 02:37:10;;;;;;;13.83;6.43;;;;;;;;;;6113332;29;20297;-61
2024/02/20 02:40:15;;;;;;;8.47;5.37;;;;;;;;;;6112643;29;20309;-61
2024/02/20 02:43:20;;;;;;;13.87;6.63;;;;;;;;;;6112928;29;20295;-62
2024/02/20 02:46:24;;;;;;;11.30;6.10;;;;;;;;;;6113236;29;20296;-62
2024/02/20 02:49:28;;;;;;;15.37;6.33;;;;;;;;;;6112396;29;20306;-61
2024/02/20 02:52:32;;;;;;;13.23;6.03;;;;;;;;;;6113237;29;20411;-60
2024/02/20 02:55:36;;;;;;;16.17;7.37;;;;;;;;;;6130524;29;20300;-61
2024/02/20 02:58:42;;;;;;;14.13;7.27;;;;;;;;;;6136070;29;20530;-61
2024/02/20 03:01:46;;;;;;;12.37;6.63;;;;;;;;;;6140586;29;20308;-61
2024/02/20 03:04:50;;;;;;;17.63;7.20;;;;;;;;;;6139949;29;20295;-61
2024/02/20 03:07:55;;;;;;;12.60;6.70;;;;;;;;;;6140432;29;20594;-62
2024/02/20 03:10:59;;;;;;;12.83;6.13;;;;;;;;;;6127377;29;20306;-62
2024/02/20 03:14:05;;;;;;;11.73;6.23;;;;;;;;;;6116229;29;20563;-61
2024/02/20 03:17:09;;;;;;;15.63;6.40;;;;;;;;;;6116868;29;20310;-61
2024/02/20 03:20:14;;;;;;;13.23;6.47;;;;;;;;;;6115929;29;20301;-61
2024/02/20 03:23:19;;;;;;;10.10;5.90;;;;;;;;;;6115821;29;20316;-62
2024/02/20 03:26:22;;;;;;;12.73;6.17;;;;;;;;;;6115431;29;20307;-62
2024/02/20 03:29:30;;;;;;;15.77;6.20;;;;;;;;;;6115895;29;20298;-61
2024/02/20 03:32:33;;;;;;;10.03;5.47;;;;;;;;;;6115734;29;20317;-61
2024/02/20 03:35:37;;;;;;;12.20;6.07;;;;;;;;;;6115582;29;20578;-61
2024/02/20 03:38:41;;;;;;;12.40;6.00;;;;;;;;;;6115844;29;20290;-61
2024/02/20 03:41:46;;;;;;;12.57;5.67;;;;;;;;;;6115644;29;20311;-61
2024/02/20 03:44:51;;;;;;;10.90;6.07;;;;;;;;;;6115636;29;20570;-61
2024/02/20 03:47:55;;;;;;;11.57;6.10;;;;;;;;;;6115145;29;20294;-62
2024/02/20 03:51:00;;;;;;;9.43;5.93;;;;;;;;;;6115467;29;20299;-61
2024/02/20 03:54:05;;;;;;;12.43;5.30;;;;;;;;;;6121356;29;20296;-61
2024/02/20 03:57:09;;;;;;;15.37;5.90;;;;;;;;;;6138190;29;20288;-61
2024/02/20 04:00:15;;;;;;;17.53;6.37;;;;;;;;;;6138478;29;20321;-62
2024/02/20 04:03:19;;;;;;;10.80;4.93;;;;;;;;;;6126949;29;20302;-61
2024/02/20 04:06:23;;;;;;;12.93;5.90;;;;;;;;;;6131781;29;20291;-61
2024/02/20 04:09:27;;;;;;;13.93;6.07;;;;;;;;;;6115203;29;20302;-62
2024/02/20 04:12:31;;;;;;;12.40;5.57;;;;;;;;;;6134950;29;20300;-61
2024/02/20 04:15:37;;;;;;;12.30;5.53;;;;;;;;;;6138593;29;20302;-61
2024/02/20 04:18:43;;;;;;;13.67;6.03;;;;;;;;;;6135387;29;20373;-61
2024/02/20 04:21:47;;;;;;;8.37;5.20;;;;;;;;;;6115417;29;20304;-61
2024/02/20 04:24:51;;;;;;;7.70;5.53;;;;;;;;;;6114660;29;20474;-61
2024/02/20 04:27:54;;;;;;;10.90;5.50;;;;;;;;;;6114461;29;20296;-61
2024/02/20 04:31:00;;;;;;;7.17;5.07;;;;;;;;;;6115111;29;20307;-60
2024/02/20 04:34:04;;;;;;;6.90;5.40;;;;;;;;;;6114594;29;20300;-61
2024/02/20 04:37:08;;;;;;;6.83;5.00;;;;;;;;;;6128492;29;20302;-61
2024/02/20 04:40:12;;;;;;;7.40;5.23;;;;;;;;;;6138021;29;20302;-61
2024/02/20 04:43:17;;;;;;;5.83;4.83;;;;;;;;;;6138271;29;20320;-60
2024/02/20 04:46:22;;;;;;;6.57;5.03;;;;;;;;;;6138354;29;20615;-61
2024/02/20 04:49:26;;;;;;;7.17;5.13;;;;;;;;;;6137783;29;20305;-61
2024/02/20 04:52:30;;;;;;;6.50;5.13;;;;;;;;;;6138107;29;20467;-61
2024/02/20 04:55:34;;;;;;;7.30;5.73;;;;;;;;;;6119646;29;20309;-62
2024/02/20 04:58:38;;;;;;;10.90;5.87;;;;;;;;;;6113198;29;20395;-61
2024/02/20 05:01:44;;;;;;;10.27;5.77;;;;;;;;;;6111933;29;20311;-61
2024/02/20 05:04:48;;;;;;;10.23;6.23;;;;;;;;;;6113709;29;20301;-62
2024/02/20 05:07:52;;;;;;;9.33;5.87;;;;;;;;;;6113222;29;20451;-61
2024/02/20 05:10:56;;;;;;;9.23;6.40;;;;;;;;;;6124964;29;20329;-61
2024/02/20 05:14:01;;;;;;;5.73;5.17;;;;;;;;;;6135889;29;20609;-61
2024/02/20 05:17:07;;;;;;;5.73;5.17;;;;;;;;;;6137613;29;20592;-61
2024/02/20 05:20:12;;;;;;;6.30;5.70;;;;;;;;;;6137079;29;20298;-62
2024/02/20 05:23:16;;;;;;;6.23;5.50;;;;;;;;;;6136461;29;20306;-62
2024/02/20 05:26:20;;;;;;;6.77;6.07;;;;;;;;;;6137474;29;20304;-61
2024/02/20 05:29:23;;;;;;;9.87;5.63;;;;;;;;;;6136886;29;20297;-60
2024/02/20 05:32:29;;;;;;;8.70;6.57;;;;;;;;;;6137578;29;20309;-61
2024/02/20 05:35:33;;;;;;;6.93;5.77;;;;;;;;;;6137310;29;20298;-62
2024/02/20 05:38:39;;;;;;;8.23;6.17;;;;;;;;;;6137133;29;20490;-60
2024/02/20 05:41:43;;;;;;;8.60;6.50;;;;;;;;;;6137263;29;20304;-60
2024/02/20 05:44:47;;;;;;;7.27;6.30;;;;;;;;;;6136989;29;20295;-60
2024/02/20 05:47:52;;;;;;;10.93;7.30;;;;;;;;;;6112759;29;20304;-60
2024/02/20 05:50:56;;;;;;;10.93;7.43;;;;;;;;;;6113047;29;20312;-61
2024/02/20 05:54:01;;;;;;;12.80;7.20;;;;;;;;;;6106780;29;20296;-60
2024/02/20 05:57:06;;;;;;;14.00;6.97;;;;;;;;;;6090082;29;20295;-60
2024/02/20 06:00:12;;;;;;;12.97;7.03;;;;;;;;;;6089287;29;20298;-60
2024/02/20 06:03:17;;;;;;;13.07;7.20;;;;;;;;;;6089172;29;20298;-60
2024/02/20 06:06:21;;;;;;;12.87;7.00;;;;;;;;;;6090116;29;20297;-60
2024/02/20 06:09:25;;;;;;;12.07;6.63;;;;;;;;;;6089649;29;20295;-60
2024/02/20 06:12:31;;;;;;;12.27;7.40;;;;;;;;;;6112891;29;20302;-60
2024/02/20 06:15:35;;;;;;;14.80;6.50;;;;;;;;;;6112247;29;20308;-61
2024/02/20 06:18:40;;;;;;;18.60;6.73;;;;;;;;;;6112564;29;20341;-61
2024/02/20 06:21:44;;;;;;;12.93;6.53;;;;;;;;;;6112973;29;20314;-61
2024/02/20 06:24:48;;;;;;;12.67;6.33;;;;;;;;;;6112454;29;20323;-62
2024/02/20 06:27:52;;;;;;;11.53;6.53;;;;;;;;;;6112375;29;20296;-61
2024/02/20 06:30:58;;;;;;;13.70;6.27;;;;;;;;;;6113167;29;20297;-61
2024/02/20 06:34:04;;;;;;;15.23;6.83;;;;;;;;;;6112701;29;20299;-61
2024/02/20 06:37:08;;;;;;;12.20;6.83;;;;;;;;;;6117869;29;20293;-61
2024/02/20 06:40:12;;;;;;;13.93;6.83;;;;;;;;;;6117347;29;20306;-61
2024/02/20 06:43:16;;;;;;;15.83;6.20;;;;;;;;;;6117042;29;20301;-61
2024/02/20 06:46:23;;;;;;;12.37;6.50;;;;;;;;;;6129115;29;20302;-61
2024/02/20 06:49:28;;;;;;;13.83;6.43;;;;;;;;;;6140399;29;20306;-61
2024/02/20 06:52:33;;;;;;;13.40;5.93;;;;;;;;;;6140854;29;20306;-61
2024/02/20 06:55:37;;;;;;;14.73;6.27;;;;;;;;;;6121789;29;20302;-61
2024/02/20 06:58:42;;;;;;;14.07;6.53;;;;;;;;;;6116433;29;20308;-61
2024/02/20 07:01:46;;;;;;;12.63;6.30;;;;;;;;;;6117070;29;20497;-61
2024/02/20 07:04:54;;;;;;;17.70;6.20;;;;;;;;;;6115320;29;20297;-61
2024/02/20 07:07:59;;;;;;;17.80;6.93;;;;;;;;;;6113994;29;20363;-61
2024/02/20 07:11:04;;;;;;;16.87;6.50;;;;;;;;;;6129116;29;20323;-61
2024/02/20 07:14:08;;;;;;;12.10;6.00;;;;;;;;;;6139606;29;20628;-60
2024/02/20 07:17:12;;;;;;;12.63;6.50;;;;;;;;;;6140213;29;20304;-61
2024/02/20 07:20:17;;;;;;;13.67;6.63;;;;;;;;;;6138328;29;20297;-60
2024/02/20 07:23:22;;;;;;;14.93;6.60;;;;;;;;;;6139774;29;20324;-61
2024/02/20 07:26:27;;;;;;;15.80;6.40;;;;;;;;;;6140358;29;20307;-60
2024/02/20 07:29:30;;;;;;;10.70;6.17;;;;;;;;;;6139246;29;20296;-60
2024/02/20 07:32:34;;;;;;;12.63;7.10;;;;;;;;;;6139590;29;20582;-60
2024/02/20 07:35:40;;;;;;;13.70;6.80;;;;;;;;;;6137737;29;20300;-60
2024/02/20 07:38:45;;;;;;;12.10;6.60;;;;;;;;;;6139274;29;20304;-60
2024/02/20 07:41:49;;;;;;;14.03;7.13;;;;;;;;;;6139457;29;20295;-60
2024/02/20 07:44:53;;;;;;;15.33;7.60;;;;;;;;;;6138553;29;20284;-60
2024/02/20 07:47:57;;;;;;;11.50;7.27;;;;;;;;;;6139189;29;20312;-60
2024/02/20 07:51:05;;;;;;;16.90;7.73;;;;;;;;;;6139546;29;20291;-60
2024/02/20 07:54:09;;;;;;;10.37;6.70;;;;;;;;;;6132020;29;20303;-60
2024/02/20 07:57:13;;;;;;;8.40;5.97;;;;;;;;;;6115352;29;20300;-61
2024/02/20 08:00:18;;;;;;;12.63;6.90;;;;;;;;;;6115000;29;20299;-60
2024/02/20 08:03:23;;;;;;;12.60;6.67;;;;;;;;;;6114907;29;20300;-61
2024/02/20 08:06:29;;;;;;;12.83;6.70;;;;;;;;;;6115543;29;20613;-60
2024/02/20 08:09:33;;;;;;;11.77;6.67;;;;;;;;;;6114804;29;20303;-60
2024/02/20 08:12:36;;;;;;;13.57;7.17;;;;;;;;;;6138858;29;20358;-60
2024/02/20 08:15:58;;;;;;;11.00;7.20;;;;;;;;;;6138576;29;20324;-62
2024/02/20 08:19:02;;;;;;;13.33;7.63;;;;;;;;;;6138280;29;20295;-61
2024/02/20 08:22:08;;;;;;;11.13;6.80;;;;;;;;;;6138702;29;20571;-60
2024/02/20 08:25:12;;;;;;;11.50;6.87;;;;;;;;;;6137760;29;20308;-62
2024/02/20 08:28:15;;;;;;;7.37;5.97;;;;;;;;;;6137921;29;20300;-61
2024/02/20 08:31:19;;;;;;;6.83;5.97;;;;;;;;;;6138716;29;20304;-61
2024/02/20 08:34:24;;;;;;;5.70;5.30;;;;;;;;;;6137767;29;20305;-61
2024/02/20 08:37:30;;;;;;;6.00;5.50;;;;;;;;;;6138572;29;20295;-61
2024/02/20 08:40:33;;;;;;;5.90;5.40;;;;;;;;;;6137828;29;20312;-61
2024/02/20 08:43:37;;;;;;;6.67;6.00;;;;;;;;;;6137651;29;20294;-61
2024/02/20 08:46:41;;;;;;;5.20;4.80;;;;;;;;;;6137561;29;20581;-61
2024/02/20 08:49:49;;;;;;;5.67;5.10;;;;;;;;;;6137673;29;20297;-61
2024/02/20 08:52:55;;;;;;;5.00;4.53;;;;;;;;;;6136652;29;20291;-62
2024/02/20 08:55:58;;;;;;;4.83;4.50;;;;;;;;;;6116287;29;20617;-61
2024/02/20 08:59:04;;;;;;;5.10;4.67;;;;;;;;;;6113353;29;20292;-61
2024/02/20 09:02:08;;;;;;;4.30;4.03;;;;;;;;;;6114343;29;20439;-61
2024/02/20 09:05:12;;;;;;;4.20;3.90;;;;;;;;;;6113799;29;20305;-61
2024/02/20 09:08:17;;;;;;;4.80;4.40;;;;;;;;;;6113696;29;20296;-61
2024/02/20 09:11:21;;;;;;;4.70;4.33;;;;;;;;;;6128355;29;20454;-61
2024/02/20 09:14:26;;;;;;;4.60;4.30;;;;;;;;;;6136841;29;20300;-61
2024/02/20 09:17:31;;;;;;;4.00;3.80;;;;;;;;;;6137696;29;20300;-61
2024/02/20 09:20:35;;;;;;;4.03;3.83;;;;;;;;;;6136960;29;20369;-61
2024/02/20 09:23:40;;;;;;;3.83;3.63;;;;;;;;;;6136757;29;20308;-61
2024/02/20 09:26:44;;;;;;;4.10;3.80;;;;;;;;;;6137135;29;20304;-61
2024/02/20 09:29:48;;;;;;;4.13;3.90;;;;;;;;;;6135113;29;20307;-61
2024/02/20 09:32:51;;;;;;;3.83;3.63;;;;;;;;;;6136309;29;20295;-61
2024/02/20 09:35:56;;;;;;;3.90;3.80;;;;;;;;;;6137486;29;20425;-62
2024/02/20 09:39:04;;;;;;;4.43;4.20;;;;;;;;;;6136903;29;20593;-60
2024/02/20 09:42:11;;;;;;;4.93;4.53;;;;;;;;;;6137107;29;20296;-60
2024/02/20 09:45:18;;;;;;;4.70;4.43;;;;;;;;;;6136539;29;20594;-61
2024/02/20 09:48:23;;;;;;;4.13;3.97;;;;;;;;;;6136443;29;20567;-61
2024/02/20 09:51:30;;;;;;;4.60;4.30;;;;;;;;;;6137059;29;20296;-60
2024/02/20 09:54:36;;;;;;;5.53;5.07;;;;;;;;;;6126057;29;20320;-60
2024/02/20 09:57:40;;;;;;;5.47;5.10;;;;;;;;;;6112615;29;20295;-61
2024/02/20 10:00:44;;;;;;;5.30;4.97;;;;;;;;;;6113197;29;20299;-61
2024/02/20 10:03:49;;;;;;;5.47;4.97;;;;;;;;;;6113023;29;20297;-61
2024/02/20 10:06:53;;;;;;;5.47;5.17;;;;;;;;;;6113424;29;20573;-61
2024/02/20 10:09:59;;;;;;;4.90;4.63;;;;;;;;;;6119202;29;20288;-61
2024/02/20 10:13:04;;;;;;;6.27;5.73;;;;;;;;;;6140968;29;20316;-61
2024/02/20 10:16:08;;;;;;;6.87;6.27;;;;;;;;;;6141447;29;20431;-61
2024/02/20 10:19:12;;;;;;;6.20;5.70;;;;;;;;;;6140897;29;20305;-61
2024/02/20 10:22:23;;;;;;;5.97;5.47;;;;;;;;;;6141358;29;20308;-61
2024/02/20 10:25:29;;;;;;;6.33;5.70;;;;;;;;;;6140992;29;20299;-61
2024/02/20 10:28:33;;;;;;;6.57;5.97;;;;;;;;;;6141293;29;20525;-61
2024/02/20 10:31:36;;;;;;;6.37;5.83;;;;;;;;;;6141579;29;20301;-61
2024/02/20 10:34:40;;;;;;;5.63;5.20;;;;;;;;;;6140365;29;20312;-61
2024/02/20 10:37:44;;;;;;;5.73;5.30;;;;;;;;;;6140498;29;20291;-62
2024/02/20 10:40:50;;;;;;;5.63;5.23;;;;;;;;;;6141034;29;20332;-61
2024/02/20 10:43:54;;;;;;;6.27;4.43;;;;;;;;;;6140281;29;20295;-62
2024/02/20 10:46:58;;;;;;;4.83;4.47;;;;;;;;;;6141239;29;20259;-62
2024/02/20 10:50:05;;;;;;;4.20;4.10;;;;;;;;;;6140885;29;20295;-61
2024/02/20 10:53:09;;;;;;;4.53;4.23;;;;;;;;;;6140304;29;20599;-62
2024/02/20 10:56:15;;;;;;;4.27;4.07;;;;;;;;;;6117449;29;20304;-62
2024/02/20 10:59:18;;;;;;;3.87;3.77;;;;;;;;;;6116236;29;20444;-63
2024/02/20 11:02:22;;;;;;;4.13;3.97;;;;;;;;;;6117038;29;20298;-62
2024/02/20 11:05:29;;;;;;;3.90;3.80;;;;;;;;;;6116788;29;20309;-62
2024/02/20 11:08:35;;;;;;;3.47;3.37;;;;;;;;;;6116651;29;20311;-61
2024/02/20 11:11:40;;;;;;;3.40;3.30;;;;;;;;;;6133247;29;20551;-61
2024/02/20 11:14:44;;;;;;;3.63;3.43;;;;;;;;;;6139494;29;20308;-62
2024/02/20 11:17:48;;;;;;;3.30;3.20;;;;;;;;;;6139950;29;20481;-62
2024/02/20 11:21:02;;;;;;;3.40;3.20;;;;;;;;;;6139261;29;20296;-61
2024/02/20 11:24:14;;;;;;;2.97;2.87;;;;;;;;;;6140100;29;20297;-64
2024/02/20 11:27:28;;;;;;;3.20;3.00;;;;;;;;;;6140267;29;20296;-62
2024/02/20 11:30:33;;;;;;;2.87;2.80;;;;;;;;;;6139597;29;20490;-62
2024/02/20 11:33:37;;;;;;;2.57;2.57;;;;;;;;;;6139337;29;20307;-60
2024/02/20 11:36:44;;;;;;;2.77;2.67;;;;;;;;;;6139702;29;20562;-61
2024/02/20 11:39:48;;;;;;;2.63;2.53;;;;;;;;;;6139053;29;20306;-60
2024/02/20 11:42:55;;;;;;;2.57;2.47;;;;;;;;;;6139171;29;20300;-61
2024/02/20 11:46:00;;;;;;;2.60;2.40;;;;;;;;;;6139375;29;20295;-60
2024/02/20 11:49:04;;;;;;;2.60;2.53;;;;;;;;;;6139334;29;20382;-61
2024/02/20 11:52:08;;;;;;;2.53;2.50;;;;;;;;;;6139911;29;20296;-61
2024/02/20 11:55:14;;;;;;;2.30;2.20;;;;;;;;;;6123886;29;20314;-62
2024/02/20 11:58:21;;;;;;;2.23;2.23;;;;;;;;;;6115487;29;20466;-61
2024/02/20 12:01:34;;;;;;;2.70;2.70;;;;;;;;;;6115671;29;20308;-62
2024/02/20 12:04:38;;;;;;;2.43;2.43;;;;;;;;;;6115517;29;20301;-61
2024/02/20 12:07:43;;;;;;;2.50;2.50;;;;;;;;;;6115137;29;20448;-63
2024/02/20 12:10:49;;;;;;;2.50;2.43;;;;;;;;;;6125458;29;20303;-61
2024/02/20 12:13:55;;;;;;;2.40;2.40;;;;;;;;;;6138028;29;20292;-62
2024/02/20 12:17:02;;;;;;;2.60;2.50;;;;;;;;;;6139204;29;20298;-62
2024/02/20 12:20:07;;;;;;;2.30;2.30;;;;;;;;;;6137103;29;20291;-61
2024/02/20 12:23:11;;;;;;;2.40;2.40;;;;;;;;;;6138325;29;20302;-61
2024/02/20 12:26:14;;;;;;;2.33;2.27;;;;;;;;;;6138536;29;20513;-61
2024/02/20 12:29:20;;;;;;;2.37;2.37;;;;;;;;;;6138129;29;20617;-61
2024/02/20 12:32:24;;;;;;;2.30;2.30;;;;;;;;;;6137652;29;20293;-61
2024/02/20 12:35:28;;;;;;;2.40;2.40;;;;;;;;;;6138374;29;20604;-61
2024/02/20 12:38:32;;;;;;;2.57;2.50;;;;;;;;;;6137935;29;20485;-61
2024/02/20 12:41:36;;;;;;;3.10;2.10;;;;;;;;;;6138594;29;20305;-61
2024/02/20 12:44:46;;;;;;;2.40;2.40;;;;;;;;;;6137738;29;20299;-61
2024/02/20 12:47:50;;;;;;;2.60;2.50;;;;;;;;;;6122173;29;20304;-61
2024/02/20 12:50:54;;;;;;;2.33;2.33;;;;;;;;;;6114664;29;20294;-60
2024/02/20 12:53:58;;;;;;;2.50;2.50;;;;;;;;;;6119247;29;20288;-61
2024/02/20 12:57:02;;;;;;;2.47;2.47;;;;;;;;;;6137980;29;20376;-60
2024/02/20 13:00:10;;;;;;;2.80;2.60;;;;;;;;;;6137076;29;20294;-62
2024/02/20 13:03:14;;;;;;;2.57;2.57;;;;;;;;;;6137549;29;20306;-60
2024/02/20 13:06:17;;;;;;;2.60;2.50;;;;;;;;;;6137894;29;20303;-61
2024/02/20 13:09:22;;;;;;;2.70;2.60;;;;;;;;;;6137406;29;20319;-61
2024/02/20 13:12:29;;;;;;;2.60;2.60;;;;;;;;;;6114774;29;20297;-61
2024/02/20 13:15:34;;;;;;;2.60;2.50;;;;;;;;;;6113358;29;20301;-61
2024/02/20 13:18:38;;;;;;;2.87;2.87;;;;;;;;;;6113231;29;20296;-61
2024/02/20 13:21:43;;;;;;;2.43;2.43;;;;;;;;;;6113619;29;20308;-62
2024/02/20 13:24:47;;;;;;;2.57;2.57;;;;;;;;;;6113480;29;20297;-62
2024/02/20 13:27:51;;;;;;;2.50;2.50;;;;;;;;;;6113233;29;20303;-61
2024/02/20 13:30:56;;;;;;;2.40;2.40;;;;;;;;;;6114160;29;20297;-61
2024/02/20 13:34:00;;;;;;;2.93;2.80;;;;;;;;;;6113591;29;20589;-61
2024/02/20 13:37:05;;;;;;;3.23;3.13;;;;;;;;;;6113847;29;20292;-62
2024/02/20 13:40:10;;;;;;;2.87;2.80;;;;;;;;;;6112977;29;20294;-61
2024/02/20 13:43:14;;;;;;;2.77;2.73;;;;;;;;;;6113151;29;20307;-61
2024/02/20 13:46:19;;;;;;;2.33;2.33;;;;;;;;;;6113406;29;20332;-61
2024/02/20 13:49:24;;;;;;;2.70;2.70;;;;;;;;;;6112857;29;20301;-61
2024/02/20 13:52:28;;;;;;;2.30;2.30;;;;;;;;;;6113793;29;20552;-61
2024/02/20 13:55:33;;;;;;;2.60;2.60;;;;;;;;;;6130570;29;20384;-61
2024/02/20 13:58:37;;;;;;;3.10;3.00;;;;;;;;;;6136352;29;20306;-61
2024/02/20 14:01:42;;;;;;;2.50;2.50;;;;;;;;;;6136948;29;20299;-61
2024/02/20 14:04:46;;;;;;;2.30;2.30;;;;;;;;;;6136313;29;20299;-61
2024/02/20 14:07:52;;;;;;;2.40;2.40;;;;;;;;;;6136024;29;20300;-62
2024/02/20 14:10:56;;;;;;;2.17;2.13;;;;;;;;;;6126028;29;20291;-62
2024/02/20 14:14:00;;;;;;;2.77;2.77;;;;;;;;;;6112996;29;20296;-61
2024/02/20 14:17:06;;;;;;;2.70;2.60;;;;;;;;;;6113701;29;20315;-62
2024/02/20 14:20:11;;;;;;;2.60;2.60;;;;;;;;;;6112957;29;20297;-63
2024/02/20 14:23:15;;;;;;;2.60;2.50;;;;;;;;;;6110927;29;20411;-62
2024/02/20 14:26:19;;;;;;;2.73;2.70;;;;;;;;;;6113078;29;20308;-62
2024/02/20 14:29:27;;;;;;;2.77;2.67;;;;;;;;;;6111756;29;20304;-62
2024/02/20 14:32:32;;;;;;;2.30;2.30;;;;;;;;;;6113119;29;20568;-62
2024/02/20 14:35:36;;;;;;;2.60;2.60;;;;;;;;;;6112413;29;20300;-62
2024/02/20 14:38:40;;;;;;;2.40;2.30;;;;;;;;;;6112224;29;20305;-62
2024/02/20 14:41:44;;;;;;;2.43;2.43;;;;;;;;;;6112966;29;20289;-61
2024/02/20 14:44:48;;;;;;;2.93;2.80;;;;;;;;;;6112534;29;20292;-62
2024/02/20 14:47:53;;;;;;;3.30;3.20;;;;;;;;;;6112454;29;20465;-62
2024/02/20 14:50:57;;;;;;;2.90;2.80;;;;;;;;;;6112872;29;20374;-62
2024/02/20 14:54:01;;;;;;;2.63;2.63;;;;;;;;;;6118025;29;20296;-62
2024/02/20 14:57:06;;;;;;;2.50;2.50;;;;;;;;;;6140133;29;20298;-62
2024/02/20 15:00:11;;;;;;;2.50;2.50;;;;;;;;;;6140712;29;20315;-62
2024/02/20 15:03:16;;;;;;;2.87;2.77;;;;;;;;;;6140719;29;20296;-61
2024/02/20 15:06:24;;;;;;;3.00;2.90;;;;;;;;;;6140838;29;20407;-60
2024/02/20 15:09:28;;;;;;;2.70;2.70;;;;;;;;;;6140364;29;20308;-62
2024/02/20 15:12:32;;;;;;;2.60;2.50;;;;;;;;;;6116889;29;20301;-62
2024/02/20 15:15:36;;;;;;;3.00;2.80;;;;;;;;;;6116526;29;20331;-61
2024/02/20 15:18:42;;;;;;;2.80;2.70;;;;;;;;;;6116170;29;20315;-61
2024/02/20 15:21:46;;;;;;;3.00;2.80;;;;;;;;;;6116595;29;20467;-61
2024/02/20 15:24:50;;;;;;;2.90;2.80;;;;;;;;;;6116173;29;20324;-62
2024/02/20 15:27:55;;;;;;;2.80;2.80;;;;;;;;;;6115948;29;20307;-62
2024/02/20 15:30:59;;;;;;;2.77;2.67;;;;;;;;;;6116377;29;20295;-62
2024/02/20 15:34:04;;;;;;;2.40;2.40;;;;;;;;;;6105039;29;20293;-62
2024/02/20 15:37:09;;;;;;;2.77;2.77;;;;;;;;;;6116225;29;20359;-65
2024/02/20 15:40:13;;;;;;;2.60;2.60;;;;;;;;;;6115796;29;20296;-61
2024/02/20 15:43:17;;;;;;;2.60;2.60;;;;;;;;;;6116012;29;20299;-61
2024/02/20 15:46:21;;;;;;;2.77;2.77;;;;;;;;;;6115881;29;20588;-62
2024/02/20 15:49:27;;;;;;;2.73;2.73;;;;;;;;;;6115577;29;20304;-62
2024/02/20 15:52:32;;;;;;;2.80;2.60;;;;;;;;;;6115891;29;20292;-62
2024/02/20 15:55:40;;;;;;;2.50;2.50;;;;;;;;;;6133669;29;20299;-61
2024/02/20 15:58:44;;;;;;;2.30;2.30;;;;;;;;;;6139097;29;20306;-61
2024/02/20 16:01:49;;;;;;;2.00;2.00;;;;;;;;;;6139424;29;20303;-61
2024/02/20 16:04:56;;;;;;;2.30;2.30;;;;;;;;;;6136931;29;20291;-62
2024/02/20 16:08:02;;;;;;;2.20;2.20;;;;;;;;;;6138643;29;20308;-62
2024/02/20 16:11:06;;;;;;;2.20;2.20;;;;;;;;;;6126697;29;20292;-62
2024/02/20 16:14:10;;;;;;;2.30;2.30;;;;;;;;;;6114585;29;20295;-61
2024/02/20 16:17:17;;;;;;;2.73;2.73;;;;;;;;;;6115267;29;20300;-62
2024/02/20 16:20:22;;;;;;;2.40;2.30;;;;;;;;;;6114882;29;20435;-62
2024/02/20 16:23:26;;;;;;;2.70;2.70;;;;;;;;;;6114827;29;20575;-62
2024/02/20 16:26:30;;;;;;;2.37;2.37;;;;;;;;;;6115228;29;20584;-62
2024/02/20 16:29:34;;;;;;;2.50;2.40;;;;;;;;;;6114767;29;20349;-62
2024/02/20 16:32:38;;;;;;;2.10;2.10;;;;;;;;;;6115329;29;20307;-62
2024/02/20 16:35:43;;;;;;;2.63;2.53;;;;;;;;;;6115079;29;20299;-61
2024/02/20 16:38:48;;;;;;;2.60;2.50;;;;;;;;;;6114505;29;20291;-63
2024/02/20 16:41:52;;;;;;;2.40;2.40;;;;;;;;;;6112375;29;20304;-62
2024/02/20 16:44:56;;;;;;;2.50;2.50;;;;;;;;;;6114011;29;20316;-61
2024/02/20 16:48:00;;;;;;;2.60;2.60;;;;;;;;;;6113727;29;20305;-62
2024/02/20 16:51:05;;;;;;;2.80;2.80;;;;;;;;;;6114849;29;20292;-62
2024/02/20 16:54:09;;;;;;;3.00;2.90;;;;;;;;;;6120548;29;20383;-61
2024/02/20 16:57:14;;;;;;;2.37;2.37;;;;;;;;;;6137393;29;20299;-62
2024/02/20 17:00:20;;;;;;;2.40;2.40;;;;;;;;;;6137809;29;20301;-63
2024/02/20 17:03:24;;;;;;;2.50;2.50;;;;;;;;;;6136088;29;20469;-62
2024/02/20 17:06:29;;;;;;;2.43;2.40;;;;;;;;;;6137690;29;20387;-62
2024/02/20 17:09:34;;;;;;;2.50;2.50;;;;;;;;;;6137620;29;20299;-64
2024/02/20 17:12:39;;;;;;;2.83;2.73;;;;;;;;;;6113982;29;20307;-61
2024/02/20 17:15:43;;;;;;;2.60;2.60;;;;;;;;;;6113358;29;20301;-61
2024/02/20 17:18:48;;;;;;;2.80;2.80;;;;;;;;;;6113211;29;20311;-61
2024/02/20 17:21:53;;;;;;;2.80;2.70;;;;;;;;;;6114083;29;20291;-61
2024/02/20 17:24:57;;;;;;;2.57;2.57;;;;;;;;;;6113331;29;20303;-61
2024/02/20 17:28:01;;;;;;;3.13;3.10;;;;;;;;;;6112944;29;20316;-62
2024/02/20 17:31:05;;;;;;;3.40;3.30;;;;;;;;;;6114240;29;20299;-63
2024/02/20 17:34:09;;;;;;;3.17;3.07;;;;;;;;;;6113909;29;20375;-61
2024/02/20 17:37:14;;;;;;;3.40;3.30;;;;;;;;;;6113842;29;20291;-62
2024/02/20 17:40:19;;;;;;;3.73;3.63;;;;;;;;;;6113092;29;20307;-62
2024/02/20 17:43:24;;;;;;;3.67;3.57;;;;;;;;;;6113076;29;20529;-62
2024/02/20 17:46:29;;;;;;;4.37;4.17;;;;;;;;;;6113527;29;20300;-62
2024/02/20 17:49:33;;;;;;;3.87;3.67;;;;;;;;;;6112964;29;20303;-62
2024/02/20 17:52:38;;;;;;;3.87;3.77;;;;;;;;;;6113601;29;20298;-62
2024/02/20 17:55:42;;;;;;;3.80;3.70;;;;;;;;;;6131649;29;20294;-62
2024/02/20 17:58:46;;;;;;;3.93;3.83;;;;;;;;;;6136546;29;20311;-62
2024/02/20 18:01:51;;;;;;;3.90;3.80;;;;;;;;;;6136304;29;20302;-62
2024/02/20 18:04:55;;;;;;;4.07;3.77;;;;;;;;;;6136588;29;20362;-62
2024/02/20 18:08:01;;;;;;;3.70;3.60;;;;;;;;;;6136187;29;20585;-62
2024/02/20 18:11:06;;;;;;;3.53;3.43;;;;;;;;;;6125083;29;20296;-63
2024/02/20 18:14:10;;;;;;;3.70;3.60;;;;;;;;;;6112883;29;20296;-63
2024/02/20 18:17:14;;;;;;;4.10;3.90;;;;;;;;;;6113212;29;20297;-62
2024/02/20 18:20:18;;;;;;;3.97;3.83;;;;;;;;;;6112400;29;20300;-63